Time;durP1;ratioP1;P1;durP2;ratioP2;P2;SDS_P1;SDS_P2;PMS_P1;PMS_P2;Temp;Humidity;BMP_temperature;BMP_pressure;BME280_temperature;BME280_humidity;BME280_pressure;Samples;Min_cycle;Max_cycle;Signal;HPM_P1;HPM_P2
2022/04/17 00:02:02;;;;;;;0.40;0.40;;;5.80;61.40;;;;;;5054066;28;20189;-68
2022/04/17 00:04:28;;;;;;;0.40;0.40;;;5.70;61.00;;;;;;5054203;28;20174;-68
2022/04/17 00:06:54;;;;;;;0.40;0.40;;;5.60;61.00;;;;;;5054246;28;20189;-67
2022/04/17 00:09:20;;;;;;;0.40;0.40;;;5.70;60.90;;;;;;5053740;28;20417;-67
2022/04/17 00:11:46;;;;;;;0.30;0.30;;;5.80;61.00;;;;;;5053765;28;20259;-67
2022/04/17 00:14:12;;;;;;;0.40;0.40;;;5.90;59.60;;;;;;5054009;28;20393;-67
2022/04/17 00:16:40;;;;;;;0.30;0.30;;;5.90;59.20;;;;;;5053932;28;20173;-66
2022/04/17 00:19:09;;;;;;;0.40;0.40;;;5.80;59.00;;;;;;5053849;28;20193;-67
2022/04/17 00:21:35;;;;;;;0.30;0.30;;;5.60;58.80;;;;;;5053429;28;20540;-68
2022/04/17 00:24:00;;;;;;;0.30;0.30;;;5.70;58.20;;;;;;5053912;28;20181;-68
2022/04/17 00:26:26;;;;;;;0.33;0.33;;;5.90;57.30;;;;;;5053842;28;20166;-67
2022/04/17 00:28:52;;;;;;;0.30;0.30;;;5.90;58.30;;;;;;5053489;28;20198;-67
2022/04/17 00:31:17;;;;;;;0.30;0.30;;;5.70;58.20;;;;;;5053235;28;20554;-67
2022/04/17 00:33:43;;;;;;;0.30;0.30;;;5.80;57.90;;;;;;5053496;28;20181;-67
2022/04/17 00:36:08;;;;;;;0.40;0.40;;;5.80;57.90;;;;;;5053716;28;20174;-67
2022/04/17 00:38:34;;;;;;;0.40;0.40;;;5.70;56.60;;;;;;5052044;28;20223;-67
2022/04/17 00:41:00;;;;;;;0.90;0.90;;;5.70;55.70;;;;;;5053263;28;20224;-68
2022/04/17 00:43:30;;;;;;;0.40;0.40;;;5.60;56.00;;;;;;5053517;28;20522;-67
2022/04/17 00:45:59;;;;;;;0.32;0.32;;;5.60;56.90;;;;;;5053484;28;20173;-68
2022/04/17 00:48:25;;;;;;;0.30;0.30;;;5.50;55.30;;;;;;5053171;28;20194;-67
2022/04/17 00:50:55;;;;;;;0.40;0.40;;;5.40;54.60;;;;;;5052240;28;20205;-67
2022/04/17 00:53:22;;;;;;;0.30;0.30;;;5.40;55.70;;;;;;5053278;28;20173;-68
2022/04/17 00:55:49;;;;;;;0.35;0.35;;;5.40;56.00;;;;;;5053332;28;20162;-68
2022/04/17 00:58:15;;;;;;;0.40;0.40;;;5.40;55.40;;;;;;5053125;28;20197;-67
2022/04/17 01:00:42;;;;;;;0.35;0.35;;;5.40;56.20;;;;;;5052990;28;20202;-67
2022/04/17 01:03:10;;;;;;;0.30;0.30;;;5.30;56.00;;;;;;5053171;28;20261;-67
2022/04/17 01:05:39;;;;;;;0.38;0.38;;;5.40;54.60;;;;;;5053466;28;20197;-68
2022/04/17 01:08:07;;;;;;;0.38;0.38;;;5.50;55.20;;;;;;5053197;28;20197;-68
2022/04/17 01:10:33;;;;;;;0.30;0.30;;;5.40;56.00;;;;;;5052819;28;20205;-68
2022/04/17 01:13:01;;;;;;;0.30;0.30;;;5.30;55.90;;;;;;5052939;28;20169;-68
2022/04/17 01:15:28;;;;;;;0.30;0.30;;;5.20;55.60;;;;;;5053197;28;20256;-67
2022/04/17 01:17:54;;;;;;;0.30;0.30;;;5.20;53.40;;;;;;5052925;28;20190;-68
2022/04/17 01:20:21;;;;;;;0.32;0.32;;;5.10;53.30;;;;;;5052812;28;20181;-67
2022/04/17 01:22:48;;;;;;;0.30;0.30;;;5.10;53.10;;;;;;5052774;28;20189;-67
2022/04/17 01:27:58;;;;;;;0.40;0.40;;;5.20;52.90;;;;;;5053284;28;20204;-67
2022/04/17 01:30:25;;;;;;;0.30;0.30;;;5.20;52.20;;;;;;5052779;28;20220;-68
2022/04/17 01:32:51;;;;;;;0.40;0.40;;;5.10;52.50;;;;;;5052977;28;20173;-67
2022/04/17 01:35:17;;;;;;;0.40;0.40;;;5.00;51.40;;;;;;5052979;28;20166;-68
2022/04/17 01:37:49;;;;;;;0.30;0.30;;;5.10;49.20;;;;;;5052844;28;20218;-67
2022/04/17 01:40:15;;;;;;;0.40;0.40;;;5.10;48.80;;;;;;5052583;28;20170;-67
2022/04/17 01:42:41;;;;;;;0.40;0.40;;;5.00;46.60;;;;;;5052721;28;20186;-68
2022/04/17 01:45:07;;;;;;;0.40;0.40;;;5.10;45.70;;;;;;5052790;28;20224;-68
2022/04/17 01:47:33;;;;;;;0.30;0.30;;;5.00;45.30;;;;;;5052812;28;20463;-67
2022/04/17 01:49:59;;;;;;;0.30;0.30;;;5.20;44.40;;;;;;5052412;28;20233;-67
2022/04/17 01:52:25;;;;;;;0.40;0.40;;;5.10;44.90;;;;;;5052773;28;20174;-67
2022/04/17 01:54:51;;;;;;;0.30;0.30;;;5.00;44.10;;;;;;5052603;28;20174;-67
2022/04/17 01:57:17;;;;;;;0.30;0.30;;;5.00;44.00;;;;;;5052456;28;20177;-68
2022/04/17 01:59:42;;;;;;;0.80;0.80;;;4.90;45.50;;;;;;5052588;28;20683;-67
2022/04/17 02:02:08;;;;;;;0.40;0.40;;;4.90;45.20;;;;;;5053252;28;20197;-67
2022/04/17 02:04:35;;;;;;;0.57;0.57;;;5.00;46.90;;;;;;5056376;28;20166;-67
2022/04/17 02:07:04;;;;;;;0.40;0.40;;;5.00;46.80;;;;;;5056279;28;20163;-67
2022/04/17 02:09:30;;;;;;;0.30;0.30;;;5.10;47.50;;;;;;5056119;28;20559;-68
2022/04/17 02:11:56;;;;;;;0.30;0.30;;;4.90;47.30;;;;;;5055892;28;20202;-68
2022/04/17 02:14:22;;;;;;;0.30;0.30;;;4.80;47.90;;;;;;5056358;28;20889;-67
2022/04/17 02:16:48;;;;;;;0.30;0.30;;;4.80;48.80;;;;;;5056133;28;20181;-68
2022/04/17 02:19:14;;;;;;;0.40;0.40;;;4.70;49.70;;;;;;5055856;28;20205;-68
2022/04/17 02:21:40;;;;;;;0.30;0.30;;;4.80;49.90;;;;;;5055611;28;20190;-67
2022/04/17 02:24:06;;;;;;;0.40;0.40;;;4.80;50.30;;;;;;5055899;28;20162;-67
2022/04/17 02:26:33;;;;;;;0.40;0.40;;;4.70;51.50;;;;;;5054630;28;20409;-68
2022/04/17 02:28:59;;;;;;;0.30;0.30;;;4.50;51.80;;;;;;5055805;28;20928;-67
2022/04/17 02:31:26;;;;;;;0.30;0.30;;;4.60;52.60;;;;;;5055634;28;20202;-67
2022/04/17 02:33:52;;;;;;;0.38;0.38;;;4.60;53.20;;;;;;5055900;28;20170;-67
2022/04/17 02:36:18;;;;;;;0.30;0.30;;;4.50;53.50;;;;;;5055556;28;20166;-67
2022/04/17 02:38:44;;;;;;;0.50;0.50;;;4.50;53.60;;;;;;5055525;28;20193;-68
2022/04/17 02:41:10;;;;;;;0.40;0.40;;;4.30;54.80;;;;;;5055452;28;20627;-67
2022/04/17 02:43:35;;;;;;;0.40;0.40;;;4.30;54.40;;;;;;5055779;28;20431;-67
2022/04/17 02:46:01;;;;;;;0.40;0.40;;;4.30;54.70;;;;;;5055643;28;20181;-67
2022/04/17 02:48:27;;;;;;;0.40;0.40;;;4.20;55.10;;;;;;5055381;28;20197;-67
2022/04/17 02:50:55;;;;;;;0.40;0.40;;;4.10;56.20;;;;;;5055111;28;20276;-67
2022/04/17 02:53:21;;;;;;;0.40;0.40;;;4.20;56.20;;;;;;5055345;28;20558;-68
2022/04/17 02:55:47;;;;;;;0.40;0.40;;;4.40;56.20;;;;;;5055348;28;20658;-67
2022/04/17 02:58:13;;;;;;;0.30;0.30;;;4.20;55.30;;;;;;5055305;28;20202;-69
2022/04/17 03:06:10;;;;;;;0.40;0.40;;;4.30;55.10;;;;;;5055336;28;20201;-68
2022/04/17 03:08:37;;;;;;;0.30;0.30;;;4.30;56.10;;;;;;5055420;28;20308;-66
2022/04/17 03:11:03;;;;;;;0.40;0.40;;;4.30;55.40;;;;;;5054844;28;20198;-67
2022/04/17 03:13:29;;;;;;;0.93;0.93;;;4.20;55.70;;;;;;5054502;28;20175;-67
2022/04/17 03:15:55;;;;;;;0.40;0.40;;;4.10;55.90;;;;;;5054678;28;20169;-68
2022/04/17 03:18:20;;;;;;;0.30;0.30;;;4.20;55.60;;;;;;5054983;28;20432;-67
2022/04/17 03:20:47;;;;;;;0.30;0.30;;;4.20;55.70;;;;;;5054680;28;20170;-67
2022/04/17 03:23:13;;;;;;;0.40;0.40;;;4.00;56.20;;;;;;5054779;28;20555;-66
2022/04/17 03:25:39;;;;;;;2.05;1.15;;;4.00;55.80;;;;;;5054707;28;20204;-67
2022/04/17 03:28:05;;;;;;;0.40;0.40;;;4.00;55.30;;;;;;5053332;28;20198;-67
2022/04/17 03:30:31;;;;;;;0.30;0.30;;;4.10;55.00;;;;;;5053079;28;20213;-67
2022/04/17 03:32:57;;;;;;;0.30;0.30;;;4.00;54.90;;;;;;5054635;28;20188;-67
2022/04/17 03:35:23;;;;;;;0.38;0.38;;;4.00;54.50;;;;;;5054861;28;20200;-67
2022/04/17 03:37:49;;;;;;;0.40;0.40;;;3.80;55.20;;;;;;5054723;28;20186;-68
2022/04/17 03:40:16;;;;;;;0.40;0.40;;;3.80;55.10;;;;;;5054480;28;20174;-67
2022/04/17 03:42:43;;;;;;;0.30;0.30;;;3.80;54.70;;;;;;5054626;28;20169;-68
2022/04/17 03:45:14;;;;;;;0.38;0.38;;;3.90;54.60;;;;;;5054333;28;20187;-67
2022/04/17 03:47:40;;;;;;;0.30;0.30;;;4.00;54.00;;;;;;5054589;28;20190;-67
2022/04/17 03:50:07;;;;;;;0.40;0.40;;;4.10;53.70;;;;;;5053957;28;20271;-67
2022/04/17 03:52:43;;;;;;;0.30;0.30;;;4.10;53.50;;;;;;5054222;28;20175;-67
2022/04/17 03:55:10;;;;;;;0.30;0.30;;;4.20;53.50;;;;;;5054274;28;20161;-68
2022/04/17 03:57:36;;;;;;;0.32;0.32;;;4.30;53.10;;;;;;5054292;28;20242;-68
2022/04/17 04:00:04;;;;;;;0.30;0.30;;;4.10;52.70;;;;;;5053878;28;20170;-67
2022/04/17 04:02:30;;;;;;;0.30;0.30;;;4.20;52.50;;;;;;5054279;28;20405;-67
2022/04/17 04:04:57;;;;;;;0.60;0.60;;;4.20;52.30;;;;;;5054054;28;20247;-68
2022/04/17 04:07:23;;;;;;;0.30;0.30;;;4.20;52.10;;;;;;5053987;28;20401;-67
2022/04/17 04:09:49;;;;;;;0.40;0.40;;;4.20;52.10;;;;;;5053609;28;20543;-68
2022/04/17 04:12:15;;;;;;;0.30;0.30;;;4.10;52.00;;;;;;5053789;28;20181;-67
2022/04/17 04:14:40;;;;;;;0.30;0.30;;;4.30;51.70;;;;;;5054021;28;20397;-67
2022/04/17 04:17:06;;;;;;;0.30;0.30;;;4.40;51.10;;;;;;5053923;28;20170;-67
2022/04/17 04:19:31;;;;;;;0.30;0.30;;;4.40;51.10;;;;;;5053803;28;20216;-68
2022/04/17 04:21:57;;;;;;;0.30;0.30;;;4.50;51.30;;;;;;5053504;28;20555;-67
2022/04/17 04:24:24;;;;;;;0.30;0.30;;;4.40;49.50;;;;;;5053860;28;20180;-67
2022/04/17 04:28:32;;;;;;;0.30;0.30;;;4.40;49.10;;;;;;5053816;28;20550;-67
2022/04/17 04:29:36;;;;;;;0.40;0.40;;;4.50;49.00;;;;;;5053421;28;20182;-67
2022/04/17 04:32:03;;;;;;;0.30;0.30;;;4.50;49.20;;;;;;5053354;28;20263;-68
2022/04/17 04:34:29;;;;;;;0.30;0.30;;;4.50;48.50;;;;;;5053634;28;20177;-67
2022/04/17 04:36:54;;;;;;;0.30;0.30;;;4.60;48.10;;;;;;5053635;28;20635;-68
2022/04/17 04:39:20;;;;;;;0.40;0.40;;;4.40;47.40;;;;;;5053745;28;20591;-68
2022/04/17 04:41:46;;;;;;;0.30;0.30;;;4.40;47.60;;;;;;5051904;28;20276;-67
2022/04/17 04:44:12;;;;;;;0.40;0.40;;;4.50;46.80;;;;;;5053408;28;20257;-67
2022/04/17 04:46:38;;;;;;;0.32;0.32;;;4.60;46.50;;;;;;5053483;28;20174;-67
2022/04/17 04:51:48;;;;;;;0.30;0.30;;;4.70;46.80;;;;;;5053116;28;20569;-67
2022/04/17 04:54:14;;;;;;;0.30;0.30;;;4.60;47.40;;;;;;5053258;28;20182;-68
2022/04/17 04:56:40;;;;;;;0.30;0.30;;;4.60;46.70;;;;;;5053267;28;20170;-67
2022/04/17 04:59:05;;;;;;;0.30;0.30;;;4.40;46.50;;;;;;5053069;28;20190;-68
2022/04/17 05:01:31;;;;;;;0.30;0.30;;;4.40;46.80;;;;;;5053063;28;20626;-67
2022/04/17 05:03:57;;;;;;;0.40;0.40;;;4.50;47.40;;;;;;5053235;28;20166;-68
2022/04/17 05:06:22;;;;;;;0.40;0.40;;;4.60;47.10;;;;;;5053030;28;20614;-68
2022/04/17 05:08:48;;;;;;;0.40;0.40;;;4.60;46.70;;;;;;5053081;28;20236;-68
2022/04/17 05:11:13;;;;;;;0.40;0.40;;;4.50;46.50;;;;;;5052864;28;20289;-67
2022/04/17 05:13:39;;;;;;;0.40;0.40;;;4.60;46.90;;;;;;5053190;28;20511;-67
2022/04/17 05:16:05;;;;;;;0.40;0.40;;;4.70;45.90;;;;;;5053390;28;20212;-67
2022/04/17 05:18:31;;;;;;;0.30;0.30;;;4.70;46.00;;;;;;5053229;28;20489;-68
2022/04/17 05:20:57;;;;;;;0.30;0.30;;;4.90;45.80;;;;;;5052866;28;20265;-67
2022/04/17 05:23:26;;;;;;;0.30;0.30;;;4.90;45.50;;;;;;5053272;28;20272;-67
2022/04/17 05:25:54;;;;;;;0.40;0.40;;;4.80;45.40;;;;;;5053268;28;20167;-67
2022/04/17 05:28:20;;;;;;;0.30;0.30;;;4.80;45.50;;;;;;5052877;28;20603;-67
2022/04/17 05:30:46;;;;;;;0.40;0.40;;;4.70;45.30;;;;;;5052848;28;20574;-67
2022/04/17 05:33:12;;;;;;;0.40;0.40;;;4.80;45.70;;;;;;5053063;28;20167;-68
2022/04/17 05:35:38;;;;;;;0.40;0.40;;;4.80;44.70;;;;;;5052947;28;20408;-67
2022/04/17 05:38:05;;;;;;;0.40;0.40;;;5.70;45.10;;;;;;5055339;28;20256;-67
2022/04/17 05:40:43;;;;;;;0.40;0.40;;;6.60;42.00;;;;;;5056781;28;20417;-68
2022/04/17 05:43:10;;;;;;;0.30;0.30;;;7.60;40.50;;;;;;5057047;28;20729;-67
2022/04/17 05:45:37;;;;;;;0.50;0.50;;;8.60;39.70;;;;;;5056606;28;20210;-67
2022/04/17 05:48:09;;;;;;;0.30;0.30;;;9.30;37.50;;;;;;5056600;28;20656;-67
2022/04/17 05:50:36;;;;;;;0.30;0.30;;;10.20;35.50;;;;;;5056597;28;20194;-68
2022/04/17 05:53:02;;;;;;;0.40;0.40;;;11.60;34.70;;;;;;5056798;28;20691;-68
2022/04/17 05:55:28;;;;;;;0.40;0.40;;;11.80;33.10;;;;;;5056745;28;20411;-68
2022/04/17 05:57:55;;;;;;;0.30;0.30;;;12.90;32.10;;;;;;5056645;28;20420;-68
2022/04/17 06:00:21;;;;;;;0.30;0.30;;;13.30;30.00;;;;;;5056390;28;20418;-68
2022/04/17 06:02:48;;;;;;;0.30;0.30;;;12.40;30.30;;;;;;5056355;28;20461;-67
2022/04/17 06:05:14;;;;;;;0.30;0.30;;;11.60;31.60;;;;;;5056375;28;20408;-68
2022/04/17 06:07:41;;;;;;;0.30;0.30;;;11.20;32.00;;;;;;5056306;28;20463;-69
2022/04/17 06:10:10;;;;;;;0.30;0.30;;;11.40;31.40;;;;;;5056273;28;20509;-67
2022/04/17 06:12:37;;;;;;;0.30;0.30;;;10.90;32.30;;;;;;5056411;28;20396;-68
2022/04/17 06:15:04;;;;;;;0.40;0.40;;;10.90;32.40;;;;;;5056319;28;20429;-68
2022/04/17 06:17:41;;;;;;;0.30;0.30;;;11.40;31.90;;;;;;5056253;28;20513;-67
2022/04/17 06:20:09;;;;;;;0.30;0.30;;;11.50;31.10;;;;;;5056253;28;20872;-68
2022/04/17 06:22:36;;;;;;;0.30;0.30;;;11.20;30.70;;;;;;5054550;28;20205;-67
2022/04/17 06:25:05;;;;;;;0.30;0.30;;;10.80;31.30;;;;;;5056133;28;20411;-68
2022/04/17 06:27:39;;;;;;;0.30;0.30;;;10.50;31.50;;;;;;5054819;28;20225;-68
2022/04/17 06:30:07;;;;;;;0.45;0.45;;;11.00;33.10;;;;;;5055624;28;20925;-68
2022/04/17 06:32:33;;;;;;;0.30;0.30;;;11.50;31.20;;;;;;5055843;28;20540;-67
2022/04/17 06:34:59;;;;;;;0.30;0.30;;;11.70;30.20;;;;;;5055819;28;20397;-68
2022/04/17 06:37:24;;;;;;;0.30;0.30;;;11.40;30.00;;;;;;5055877;28;20408;-69
2022/04/17 06:39:50;;;;;;;0.30;0.30;;;11.70;30.20;;;;;;5055543;28;20546;-68
2022/04/17 06:42:16;;;;;;;0.30;0.30;;;12.10;31.00;;;;;;5055687;28;20227;-68
2022/04/17 06:44:41;;;;;;;0.30;0.30;;;12.30;31.00;;;;;;5055658;28;20166;-68
2022/04/17 06:47:07;;;;;;;0.30;0.30;;;12.10;29.50;;;;;;5055635;28;20161;-68
2022/04/17 06:49:32;;;;;;;0.30;0.30;;;11.80;30.60;;;;;;5054182;28;20197;-67
2022/04/17 06:51:58;;;;;;;0.30;0.30;;;11.40;31.00;;;;;;5055363;28;20197;-68
2022/04/17 06:54:24;;;;;;;0.30;0.30;;;11.50;31.70;;;;;;5055584;28;20527;-69
2022/04/17 06:56:49;;;;;;;0.40;0.40;;;11.70;30.50;;;;;;5055359;28;20170;-67
2022/04/17 06:59:15;;;;;;;0.30;0.30;;;11.40;29.70;;;;;;5055277;28;20186;-67
2022/04/17 07:01:43;;;;;;;0.30;0.30;;;11.50;30.70;;;;;;5055238;28;20166;-68
2022/04/17 07:04:08;;;;;;;0.30;0.30;;;11.70;32.20;;;;;;5055353;28;20171;-68
2022/04/17 07:06:34;;;;;;;0.30;0.30;;;12.80;31.00;;;;;;5055321;28;20408;-68
2022/04/17 07:08:59;;;;;;;0.30;0.30;;;13.50;29.80;;;;;;5055218;28;20190;-68
2022/04/17 07:11:25;;;;;;;0.30;0.30;;;14.70;28.60;;;;;;5054826;28;20198;-68
2022/04/17 07:13:51;;;;;;;0.30;0.30;;;15.50;27.90;;;;;;5055070;28;20532;-68
2022/04/17 07:16:17;;;;;;;0.97;0.97;;;16.60;27.50;;;;;;5055117;28;20170;-68
2022/04/17 07:18:44;;;;;;;0.30;0.30;;;18.00;27.10;;;;;;5054897;28;20192;-69
2022/04/17 07:21:09;;;;;;;0.30;0.30;;;19.60;25.90;;;;;;5054655;28;20165;-68
2022/04/17 07:23:35;;;;;;;0.30;0.30;;;20.60;24.40;;;;;;5055057;28;20412;-68
2022/04/17 07:26:00;;;;;;;0.30;0.30;;;19.80;23.90;;;;;;5054872;28;20219;-69
2022/04/17 07:28:26;;;;;;;0.60;0.60;;;18.70;23.80;;;;;;5054754;28;20268;-68
2022/04/17 07:30:52;;;;;;;0.30;0.30;;;18.90;24.70;;;;;;5054552;28;20216;-69
2022/04/17 07:33:18;;;;;;;0.30;0.30;;;20.10;23.80;;;;;;5054811;28;20190;-68
2022/04/17 07:35:44;;;;;;;0.30;0.30;;;20.60;23.50;;;;;;5054889;28;20399;-69
2022/04/17 07:38:10;;;;;;;0.30;0.30;;;21.20;23.60;;;;;;5054692;28;20268;-68
2022/04/17 07:40:36;;;;;;;0.60;0.60;;;22.00;21.50;;;;;;5054648;28;20454;-69
2022/04/17 07:43:03;;;;;;;0.40;0.40;;;22.10;21.20;;;;;;5054764;28;20379;-69
2022/04/17 07:45:31;;;;;;;0.30;0.30;;;22.90;22.00;;;;;;5054425;28;20457;-69
2022/04/17 07:47:57;;;;;;;0.30;0.30;;;23.20;20.30;;;;;;5054428;28;20406;-68
2022/04/17 07:50:28;;;;;;;0.40;0.40;;;22.50;22.10;;;;;;5054161;28;20456;-69
2022/04/17 07:52:54;;;;;;;0.30;0.30;;;22.20;20.80;;;;;;5053247;28;20780;-68
2022/04/17 07:55:21;;;;;;;0.30;0.30;;;22.50;21.00;;;;;;5054281;28;20385;-69
2022/04/17 07:58:04;;;;;;;0.40;0.40;;;22.50;21.30;;;;;;5054313;28;20434;-69
2022/04/17 08:00:51;;;;;;;0.30;0.30;;;23.20;21.10;;;;;;5053918;28;20928;-68
2022/04/17 08:05:58;;;;;;;0.30;0.30;;;23.70;21.10;;;;;;5054424;28;20441;-68
2022/04/17 08:08:23;;;;;;;0.40;0.40;;;22.80;20.10;;;;;;5053963;28;20429;-69
2022/04/17 08:10:49;;;;;;;0.30;0.30;;;23.00;21.70;;;;;;5053979;28;20190;-68
2022/04/17 08:13:15;;;;;;;0.30;0.30;;;22.60;21.30;;;;;;5053702;28;20540;-69
2022/04/17 08:15:41;;;;;;;0.30;0.30;;;22.50;21.30;;;;;;5054115;28;20397;-69
2022/04/17 08:18:07;;;;;;;0.30;0.30;;;23.20;21.90;;;;;;5053856;28;20467;-69
2022/04/17 08:20:32;;;;;;;0.30;0.30;;;24.80;21.10;;;;;;5053805;28;20269;-69
2022/04/17 08:22:58;;;;;;;0.30;0.30;;;24.70;19.90;;;;;;5053936;28;20181;-69
2022/04/17 08:25:24;;;;;;;0.30;0.30;;;25.30;19.90;;;;;;5054144;28;20185;-69
2022/04/17 08:27:52;;;;;;;0.30;0.30;;;26.00;19.00;;;;;;5053954;28;20182;-68
2022/04/17 08:30:26;;;;;;;0.30;0.30;;;26.30;18.70;;;;;;5053537;28;20190;-69
2022/04/17 08:32:52;;;;;;;0.30;0.30;;;25.90;18.60;;;;;;5053848;28;20400;-69
2022/04/17 08:35:18;;;;;;;0.93;0.93;;;25.50;20.90;;;;;;5053796;28;20754;-69
2022/04/17 08:37:45;;;;;;;0.30;0.30;;;25.70;19.70;;;;;;5053648;28;20429;-70
2022/04/17 08:40:12;;;;;;;1.27;0.60;;;25.80;17.80;;;;;;5052207;28;20416;-69
2022/04/17 08:42:39;;;;;;;0.30;0.30;;;25.00;18.30;;;;;;5053558;28;20484;-68
2022/04/17 08:45:07;;;;;;;0.30;0.30;;;24.10;18.10;;;;;;5053560;28;20440;-68
2022/04/17 08:47:34;;;;;;;0.40;0.40;;;24.30;19.40;;;;;;5053430;28;20794;-69
2022/04/17 08:50:00;;;;;;;0.30;0.30;;;24.20;18.80;;;;;;5053233;28;20495;-68
2022/04/17 08:52:30;;;;;;;0.30;0.30;;;23.90;19.70;;;;;;5053778;28;20944;-69
2022/04/17 08:54:57;;;;;;;0.30;0.30;;;24.40;19.90;;;;;;5053587;28;20540;-69
2022/04/17 08:57:22;;;;;;;0.30;0.30;;;25.40;19.60;;;;;;5053494;28;20399;-69
2022/04/17 08:59:48;;;;;;;0.40;0.40;;;24.40;18.80;;;;;;5051844;28;20416;-69
2022/04/17 09:02:16;;;;;;;0.30;0.30;;;24.30;19.90;;;;;;5053493;28;20622;-69
2022/04/17 09:04:42;;;;;;;0.30;0.30;;;24.80;20.10;;;;;;5053311;28;20181;-68
2022/04/17 09:07:10;;;;;;;0.30;0.30;;;25.30;20.60;;;;;;5053274;28;20495;-69
2022/04/17 09:09:54;;;;;;;0.30;0.30;;;25.40;19.10;;;;;;5053141;28;20249;-69
2022/04/17 09:12:21;;;;;;;0.40;0.40;;;25.70;19.20;;;;;;5054366;28;20404;-69
2022/04/17 09:14:47;;;;;;;0.30;0.30;;;25.40;18.70;;;;;;5057417;28;20479;-69
2022/04/17 09:17:13;;;;;;;0.30;0.30;;;26.00;19.60;;;;;;5057593;28;20411;-68
2022/04/17 09:19:39;;;;;;;0.30;0.30;;;26.50;18.50;;;;;;5057213;28;20412;-69
2022/04/17 09:22:06;;;;;;;0.30;0.30;;;25.90;18.80;;;;;;5056870;28;20514;-68
2022/04/17 09:24:36;;;;;;;0.30;0.30;;;25.70;18.60;;;;;;5057127;28;20257;-69
2022/04/17 09:27:02;;;;;;;0.30;0.30;;;24.60;18.40;;;;;;5057342;28;20400;-68
2022/04/17 09:29:38;;;;;;;0.40;0.40;;;23.90;18.20;;;;;;5057338;28;20443;-69
2022/04/17 09:32:06;;;;;;;0.30;0.30;;;23.60;18.30;;;;;;5056890;28;20448;-68
2022/04/17 09:34:52;;;;;;;0.30;0.30;;;22.60;18.30;;;;;;5056898;28;20408;-69
2022/04/17 09:37:20;;;;;;;0.30;0.30;;;22.50;19.10;;;;;;5057161;28;20428;-68
2022/04/17 09:39:47;;;;;;;0.30;0.30;;;22.30;18.90;;;;;;5056660;28;20390;-69
2022/04/17 09:42:19;;;;;;;0.30;0.30;;;22.30;20.40;;;;;;5056972;28;20425;-68
2022/04/17 09:44:47;;;;;;;0.30;0.30;;;21.80;20.50;;;;;;5056830;28;20401;-69
2022/04/17 09:47:19;;;;;;;0.30;0.30;;;21.60;20.30;;;;;;5056790;28;20409;-68
2022/04/17 09:50:01;;;;;;;0.30;0.30;;;21.00;19.50;;;;;;5056848;28;20795;-69
2022/04/17 09:52:32;;;;;;;0.30;0.30;;;20.60;20.90;;;;;;5056848;28;20490;-68
2022/04/17 09:54:59;;;;;;;0.30;0.30;;;21.40;21.50;;;;;;5056813;28;20858;-68
2022/04/17 09:57:32;;;;;;;0.30;0.30;;;20.90;19.60;;;;;;5056786;28;20913;-68
2022/04/17 10:00:08;;;;;;;0.30;0.30;;;21.20;22.70;;;;;;5056364;28;20766;-69
2022/04/17 10:02:35;;;;;;;0.40;0.40;;;21.60;19.70;;;;;;5056587;28;20498;-68
2022/04/17 10:05:01;;;;;;;1.03;0.50;;;22.20;19.70;;;;;;5056510;28;20405;-68
2022/04/17 10:07:28;;;;;;;0.37;0.37;;;22.50;20.70;;;;;;5056547;28;20723;-68
2022/04/17 10:09:54;;;;;;;0.30;0.30;;;22.30;19.90;;;;;;5056093;28;20413;-68
2022/04/17 10:12:21;;;;;;;0.30;0.30;;;22.00;20.30;;;;;;5056445;28;20464;-68
2022/04/17 10:14:49;;;;;;;0.30;0.30;;;21.40;21.80;;;;;;5056632;28;20177;-68
2022/04/17 10:17:20;;;;;;;0.30;0.30;;;21.50;21.10;;;;;;5056586;28;20406;-68
2022/04/17 10:19:47;;;;;;;0.30;0.30;;;21.60;21.70;;;;;;5056074;28;20383;-68
2022/04/17 10:22:18;;;;;;;0.30;0.30;;;21.80;21.70;;;;;;5056056;28;20444;-69
2022/04/17 10:24:51;;;;;;;0.30;0.30;;;21.50;20.30;;;;;;5056130;28;20823;-68
2022/04/17 10:27:23;;;;;;;0.30;0.30;;;20.70;22.50;;;;;;5056441;28;20412;-68
2022/04/17 10:30:21;;;;;;;0.30;0.30;;;20.40;20.00;;;;;;5055884;28;20392;-68
2022/04/17 10:33:04;;;;;;;0.30;0.30;;;19.60;20.80;;;;;;5047932;28;20416;-68
2022/04/17 10:35:56;;;;;;;0.30;0.30;;;19.30;20.00;;;;;;5056074;28;20392;-68
2022/04/17 10:38:43;;;;;;;0.30;0.30;;;18.70;19.80;;;;;;5048275;28;20521;-68
2022/04/17 10:41:12;;;;;;;0.30;0.30;;;18.60;21.70;;;;;;5055697;28;20398;-68
2022/04/17 10:43:47;;;;;;;0.30;0.30;;;18.70;20.20;;;;;;5055855;28;20479;-68
2022/04/17 10:46:14;;;;;;;0.30;0.30;;;19.00;20.70;;;;;;5055679;28;20641;-68
2022/04/17 10:49:01;;;;;;;0.30;0.30;;;18.70;20.50;;;;;;5054244;28;20960;-68
2022/04/17 10:51:30;;;;;;;0.30;0.30;;;18.30;23.50;;;;;;5055556;28;20452;-67
2022/04/17 10:54:06;;;;;;;0.40;0.40;;;17.70;21.80;;;;;;5055718;28;20416;-68
2022/04/17 10:56:54;;;;;;;0.40;0.40;;;17.60;21.90;;;;;;5055525;28;20490;-68
2022/04/17 10:59:21;;;;;;;0.30;0.30;;;17.80;22.30;;;;;;5055408;28;20416;-68
2022/04/17 11:02:03;;;;;;;0.30;0.30;;;17.90;20.80;;;;;;5055436;28;20757;-68
2022/04/17 11:04:30;;;;;;;0.30;0.30;;;17.30;23.70;;;;;;5055551;28;20403;-68
2022/04/17 11:07:05;;;;;;;0.97;0.80;;;17.40;23.10;;;;;;5055539;28;20760;-69
2022/04/17 11:09:33;;;;;;;0.30;0.30;;;17.50;22.20;;;;;;5055247;28;20432;-68
2022/04/17 11:12:18;;;;;;;0.30;0.30;;;17.50;24.90;;;;;;5055078;28;20452;-68
2022/04/17 11:15:01;;;;;;;0.30;0.30;;;17.40;23.20;;;;;;5055335;28;20397;-68
2022/04/17 11:17:32;;;;;;;0.30;0.30;;;17.60;22.90;;;;;;5055250;28;20397;-68
2022/04/17 11:19:59;;;;;;;0.30;0.30;;;17.50;22.30;;;;;;5054938;28;20428;-68
2022/04/17 11:22:27;;;;;;;1.57;1.47;;;17.20;21.10;;;;;;5055068;28;20427;-67
2022/04/17 11:24:55;;;;;;;0.30;0.30;;;16.50;22.30;;;;;;5055144;28;20401;-68
2022/04/17 11:27:41;;;;;;;0.30;0.30;;;16.50;22.00;;;;;;5055121;28;20761;-68
2022/04/17 11:30:28;;;;;;;0.30;0.30;;;16.60;21.50;;;;;;5054899;28;20488;-68
2022/04/17 11:32:56;;;;;;;0.30;0.30;;;16.70;21.80;;;;;;5055215;28;20756;-68
2022/04/17 11:35:23;;;;;;;0.30;0.30;;;17.00;22.50;;;;;;5054286;28;20397;-68
2022/04/17 11:37:54;;;;;;;0.30;0.30;;;17.20;22.20;;;;;;5054837;28;20855;-67
2022/04/17 11:40:22;;;;;;;0.30;0.30;;;16.70;22.50;;;;;;5054556;28;20814;-68
2022/04/17 11:42:52;;;;;;;0.30;0.30;;;16.50;21.40;;;;;;5055067;28;20496;-67
2022/04/17 11:45:21;;;;;;;0.30;0.30;;;16.40;21.50;;;;;;5054744;28;20415;-68
2022/04/17 11:47:48;;;;;;;0.30;0.30;;;16.30;20.70;;;;;;5053210;28;20447;-68
2022/04/17 11:50:26;;;;;;;0.30;0.30;;;15.90;20.90;;;;;;5054236;28;20841;-68
2022/04/17 11:52:53;;;;;;;0.30;0.30;;;15.90;20.80;;;;;;5054567;28;20791;-68
2022/04/17 11:55:27;;;;;;;0.30;0.30;;;15.90;20.90;;;;;;5054656;28;20510;-68
2022/04/17 11:57:53;;;;;;;0.30;0.30;;;15.70;21.00;;;;;;5054540;28;20841;-68
2022/04/17 12:00:18;;;;;;;0.30;0.30;;;15.70;21.10;;;;;;5054213;28;20411;-68
2022/04/17 12:02:44;;;;;;;0.30;0.30;;;15.90;22.70;;;;;;5054394;28;20396;-68
2022/04/17 12:05:13;;;;;;;0.30;0.30;;;16.20;21.10;;;;;;5052929;28;20182;-68
2022/04/17 12:07:41;;;;;;;0.30;0.30;;;15.50;20.60;;;;;;5054357;28;20182;-68
2022/04/17 12:10:07;;;;;;;0.30;0.30;;;15.50;21.70;;;;;;5054229;28;20411;-68
2022/04/17 12:12:38;;;;;;;0.40;0.40;;;15.40;22.00;;;;;;5054220;28;20841;-68
2022/04/17 12:15:05;;;;;;;0.30;0.30;;;15.80;24.60;;;;;;5054297;28;20404;-69
2022/04/17 12:17:32;;;;;;;0.30;0.30;;;16.00;21.80;;;;;;5054124;28;20420;-67
2022/04/17 12:19:58;;;;;;;0.30;0.30;;;16.10;21.60;;;;;;5053787;28;20397;-68
2022/04/17 12:22:24;;;;;;;0.30;0.30;;;16.10;21.30;;;;;;5053738;28;20424;-68
2022/04/17 12:24:51;;;;;;;0.30;0.30;;;16.30;20.90;;;;;;5053969;28;20411;-68
2022/04/17 12:27:19;;;;;;;0.30;0.30;;;16.00;20.40;;;;;;5053873;28;20411;-68
2022/04/17 12:29:58;;;;;;;0.30;0.30;;;15.60;19.90;;;;;;5053559;28;20423;-68
2022/04/17 12:32:29;;;;;;;0.30;0.30;;;15.30;20.60;;;;;;5053790;28;20404;-68
2022/04/17 12:34:58;;;;;;;0.30;0.30;;;15.30;21.20;;;;;;5053967;28;20445;-68
2022/04/17 12:37:28;;;;;;;0.30;0.30;;;15.10;20.60;;;;;;5053854;28;20873;-68
2022/04/17 12:40:30;;;;;;;0.33;0.33;;;15.10;21.30;;;;;;5053417;28;20396;-68
2022/04/17 12:43:14;;;;;;;0.30;0.30;;;15.20;22.90;;;;;;5011748;28;20415;-68
2022/04/17 12:45:55;;;;;;;0.30;0.30;;;15.00;22.90;;;;;;5050502;28;20525;-68
2022/04/17 12:48:27;;;;;;;0.30;0.30;;;15.20;23.20;;;;;;5053566;28;20456;-68
2022/04/17 12:51:11;;;;;;;0.30;0.30;;;15.30;22.70;;;;;;5051847;28;20467;-68
2022/04/17 12:53:39;;;;;;;0.30;0.30;;;15.20;22.50;;;;;;5053547;28;20752;-68
2022/04/17 12:56:05;;;;;;;0.30;0.30;;;15.30;22.00;;;;;;5053581;28;20400;-68
2022/04/17 12:58:54;;;;;;;0.30;0.30;;;15.10;21.90;;;;;;5053381;28;20764;-68
2022/04/17 13:01:28;;;;;;;0.30;0.30;;;15.20;24.00;;;;;;5053182;28;20404;-68
2022/04/17 13:04:12;;;;;;;0.30;0.30;;;15.50;23.90;;;;;;5053314;28;20420;-68
2022/04/17 13:06:38;;;;;;;0.30;0.30;;;15.60;21.80;;;;;;5053449;28;20404;-68
2022/04/17 13:09:13;;;;;;;0.30;0.30;;;15.40;21.60;;;;;;5053239;28;20427;-68
2022/04/17 13:11:56;;;;;;;0.40;0.40;;;15.40;23.20;;;;;;5053043;28;20446;-68